Time;durP1;ratioP1;P1;durP2;ratioP2;P2;SDS_P1;SDS_P2;PMS_P1;PMS_P2;Temp;Humidity;BMP_temperature;BMP_pressure;BME280_temperature;BME280_humidity;BME280_pressure;Samples;Min_cycle;Max_cycle;Signal;HPM_P1;HPM_P2
2021/04/19 00:02:00;;;;;;;56.67;35.47;;;6.80;99.90;;;;;;5073353;28;20024;-61
2021/04/19 00:04:25;;;;;;;59.65;34.08;;;6.90;99.90;;;;;;5073313;28;20071;-61
2021/04/19 00:06:51;;;;;;;69.22;35.63;;;6.80;99.90;;;;;;5073519;28;20025;-61
2021/04/19 00:09:17;;;;;;;64.38;35.38;;;6.80;99.90;;;;;;5072951;28;20381;-61
2021/04/19 00:11:42;;;;;;;60.58;34.85;;;6.80;99.90;;;;;;5072982;28;20516;-61
2021/04/19 00:14:08;;;;;;;61.10;34.95;;;6.80;99.90;;;;;;5072945;28;20024;-61
2021/04/19 00:16:34;;;;;;;69.40;36.53;;;6.80;99.90;;;;;;5073345;28;20036;-61
2021/04/19 00:18:59;;;;;;;61.08;35.13;;;6.80;99.90;;;;;;5072732;28;20020;-61
2021/04/19 00:21:25;;;;;;;61.03;35.92;;;6.80;99.90;;;;;;5072952;28;20035;-62
2021/04/19 00:23:51;;;;;;;59.47;34.53;;;6.80;99.90;;;;;;5072332;28;20024;-61
2021/04/19 00:26:16;;;;;;;67.28;35.45;;;6.80;99.90;;;;;;5072883;28;20028;-61
2021/04/19 00:28:42;;;;;;;60.40;35.47;;;6.80;99.90;;;;;;5072643;28;20017;-61
2021/04/19 00:31:08;;;;;;;58.55;35.95;;;6.70;99.90;;;;;;5072616;28;20029;-61
2021/04/19 00:33:34;;;;;;;57.38;34.85;;;6.70;99.90;;;;;;5072449;28;20512;-62
2021/04/19 00:35:59;;;;;;;66.97;36.17;;;6.70;99.90;;;;;;5071246;28;20029;-61
2021/04/19 00:38:25;;;;;;;59.85;35.63;;;6.70;99.90;;;;;;5072519;28;20024;-61
2021/04/19 00:40:54;;;;;;;66.82;36.03;;;6.60;99.90;;;;;;5072586;28;20056;-61
2021/04/19 00:43:21;;;;;;;63.47;36.78;;;6.70;99.90;;;;;;5071204;28;20050;-61
2021/04/19 00:45:49;;;;;;;60.35;35.65;;;6.60;99.90;;;;;;5070967;28;20555;-61
2021/04/19 00:48:15;;;;;;;68.63;38.15;;;6.60;99.90;;;;;;5072306;28;20028;-61
2021/04/19 00:50:41;;;;;;;64.85;36.58;;;6.70;99.90;;;;;;5072146;28;20074;-61
2021/04/19 00:53:07;;;;;;;67.78;38.38;;;6.70;99.90;;;;;;5072223;28;20423;-61
2021/04/19 00:55:33;;;;;;;74.40;38.30;;;6.70;99.90;;;;;;5072514;28;20028;-61
2021/04/19 00:57:59;;;;;;;77.07;39.63;;;6.80;99.90;;;;;;5071845;28;20045;-61
2021/04/19 01:00:32;;;;;;;68.18;38.65;;;6.70;99.90;;;;;;5070794;28;20040;-61
2021/04/19 01:02:59;;;;;;;65.80;37.78;;;6.70;99.90;;;;;;5072209;28;20028;-62
2021/04/19 01:05:35;;;;;;;69.38;38.63;;;6.70;99.90;;;;;;5072294;28;20534;-61
2021/04/19 01:08:01;;;;;;;71.97;37.55;;;6.70;99.90;;;;;;5072525;28;20100;-61
2021/04/19 01:10:28;;;;;;;65.25;38.55;;;6.60;99.90;;;;;;5070581;28;20120;-61
2021/04/19 01:12:53;;;;;;;67.72;37.95;;;6.60;99.90;;;;;;5071494;28;20085;-61
2021/04/19 01:15:19;;;;;;;69.80;37.92;;;6.60;99.90;;;;;;5071623;28;20020;-61
2021/04/19 01:17:46;;;;;;;70.18;37.03;;;6.60;99.90;;;;;;5071806;28;20028;-61
2021/04/19 01:20:15;;;;;;;75.47;37.05;;;6.50;99.90;;;;;;5072051;28;20035;-61
2021/04/19 01:22:42;;;;;;;61.63;37.78;;;6.50;99.90;;;;;;5071490;28;20405;-61
2021/04/19 01:25:10;;;;;;;64.85;35.25;;;6.50;99.90;;;;;;5071874;28;20350;-61
2021/04/19 01:27:36;;;;;;;63.53;36.72;;;6.40;99.90;;;;;;5070514;28;20070;-61
2021/04/19 01:30:04;;;;;;;70.43;37.20;;;6.40;99.90;;;;;;5071711;28;20032;-61
2021/04/19 01:32:29;;;;;;;69.78;37.47;;;6.40;99.90;;;;;;5071601;28;20051;-61
2021/04/19 01:34:55;;;;;;;71.15;37.42;;;6.40;99.90;;;;;;5071275;28;20477;-61
2021/04/19 01:37:20;;;;;;;64.95;36.97;;;6.40;99.90;;;;;;5071856;28;20024;-61
2021/04/19 01:39:46;;;;;;;68.95;37.30;;;6.40;99.90;;;;;;5071759;28;20427;-61
2021/04/19 01:42:12;;;;;;;69.78;36.97;;;6.40;99.90;;;;;;5071421;28;20423;-61
2021/04/19 01:44:37;;;;;;;63.42;36.78;;;6.40;99.90;;;;;;5071278;28;20036;-61
2021/04/19 01:47:04;;;;;;;63.65;37.78;;;6.40;99.90;;;;;;5071555;28;20376;-61
2021/04/19 01:49:30;;;;;;;66.30;36.90;;;6.40;99.90;;;;;;5071407;28;20065;-61
2021/04/19 01:51:56;;;;;;;74.25;37.67;;;6.40;99.90;;;;;;5071366;28;20024;-61
2021/04/19 01:54:22;;;;;;;68.53;37.47;;;6.50;99.90;;;;;;5071295;28;20020;-61
2021/04/19 01:56:48;;;;;;;68.18;36.58;;;6.40;99.90;;;;;;5071262;28;20162;-61
2021/04/19 01:59:14;;;;;;;70.40;35.95;;;6.40;99.90;;;;;;5070898;28;20451;-61
2021/04/19 02:01:54;;;;;;;72.30;36.22;;;6.40;99.90;;;;;;5071173;28;20044;-61
2021/04/19 02:04:45;;;;;;;64.00;37.03;;;6.30;99.90;;;;;;5069836;28;20111;-61
2021/04/19 02:07:27;;;;;;;66.03;37.22;;;6.30;99.90;;;;;;5070333;28;20037;-61
2021/04/19 02:10:05;;;;;;;63.70;37.17;;;6.20;99.90;;;;;;5071285;28;20020;-61
2021/04/19 02:12:49;;;;;;;63.92;36.05;;;6.20;99.90;;;;;;5071337;28;20021;-61
2021/04/19 02:15:36;;;;;;;73.53;38.78;;;6.20;99.90;;;;;;5071114;28;20036;-61
2021/04/19 02:18:50;;;;;;;66.93;36.78;;;6.20;99.90;;;;;;5071403;28;20032;-61
2021/04/19 02:21:23;;;;;;;70.32;36.75;;;6.20;99.90;;;;;;5070626;28;20554;-61
2021/04/19 02:23:57;;;;;;;67.35;39.17;;;6.10;99.90;;;;;;5069812;28;20043;-61
2021/04/19 02:26:28;;;;;;;72.15;36.17;;;6.10;99.90;;;;;;5071809;28;20013;-61
2021/04/19 02:29:09;;;;;;;64.10;37.55;;;6.00;99.90;;;;;;5070650;28;20020;-61
2021/04/19 02:31:40;;;;;;;67.97;37.58;;;6.00;99.90;;;;;;5070868;28;20020;-61
2021/04/19 02:34:10;;;;;;;72.93;37.60;;;6.10;99.90;;;;;;5071250;28;20078;-61
2021/04/19 02:36:40;;;;;;;64.90;37.28;;;6.00;99.90;;;;;;5070363;28;20127;-61
2021/04/19 02:39:06;;;;;;;79.15;37.60;;;6.00;99.90;;;;;;5071122;28;20016;-61
2021/04/19 02:41:35;;;;;;;70.22;37.97;;;6.00;99.90;;;;;;5070606;28;20153;-61
2021/04/19 02:44:01;;;;;;;74.75;37.92;;;6.00;99.90;;;;;;5070760;28;20024;-61
2021/04/19 02:46:30;;;;;;;66.38;37.55;;;6.10;99.90;;;;;;5071334;28;20025;-61
2021/04/19 02:48:57;;;;;;;88.00;38.75;;;6.10;99.90;;;;;;5073361;28;20055;-61
2021/04/19 02:51:24;;;;;;;75.85;37.40;;;6.20;99.90;;;;;;5074711;28;20029;-61
2021/04/19 02:53:50;;;;;;;78.80;37.85;;;6.30;99.90;;;;;;5074500;28;20119;-61
2021/04/19 02:56:16;;;;;;;77.60;38.28;;;6.30;99.90;;;;;;5074624;28;20032;-61
2021/04/19 02:58:45;;;;;;;77.70;37.03;;;6.30;99.90;;;;;;5073021;28;20025;-61
2021/04/19 03:01:19;;;;;;;74.68;37.92;;;6.30;99.90;;;;;;5074414;28;20028;-61
2021/04/19 03:03:46;;;;;;;80.20;38.78;;;6.20;99.90;;;;;;5074590;28;20024;-61
2021/04/19 03:06:14;;;;;;;80.35;37.05;;;6.30;99.90;;;;;;5074653;28;20091;-60
2021/04/19 03:08:45;;;;;;;81.82;38.22;;;6.30;99.90;;;;;;5074791;28;20052;-60
2021/04/19 03:11:22;;;;;;;74.68;37.65;;;6.40;99.90;;;;;;5074563;28;20027;-61
2021/04/19 03:13:50;;;;;;;88.35;38.30;;;6.40;99.90;;;;;;5074420;28;20336;-61
2021/04/19 03:16:17;;;;;;;83.43;38.40;;;6.50;99.90;;;;;;5073199;28;20063;-61
2021/04/19 03:18:45;;;;;;;73.25;37.38;;;6.40;99.90;;;;;;5072993;28;20493;-61
2021/04/19 03:21:23;;;;;;;82.30;38.55;;;6.40;99.90;;;;;;5074053;28;20487;-61
2021/04/19 03:23:54;;;;;;;76.18;38.10;;;6.50;99.90;;;;;;5074178;28;20111;-61
2021/04/19 03:26:24;;;;;;;71.43;37.35;;;6.60;99.90;;;;;;5074376;28;20041;-61
2021/04/19 03:28:51;;;;;;;72.15;35.72;;;6.60;99.90;;;;;;5072338;28;20554;-61
2021/04/19 03:31:25;;;;;;;89.10;35.97;;;6.70;99.90;;;;;;5074352;28;20554;-61
2021/04/19 03:33:52;;;;;;;68.60;34.90;;;6.70;99.90;;;;;;5074014;28;20024;-62
2021/04/19 03:36:20;;;;;;;72.53;34.00;;;6.60;99.90;;;;;;5073930;28;20020;-61
2021/04/19 03:38:48;;;;;;;70.18;32.92;;;6.70;99.90;;;;;;5073933;28;20534;-61
2021/04/19 03:41:15;;;;;;;71.78;33.08;;;6.60;99.90;;;;;;5073890;28;20051;-61
2021/04/19 03:43:48;;;;;;;65.38;33.28;;;6.50;99.90;;;;;;5074108;28;20461;-61
2021/04/19 03:46:15;;;;;;;71.93;33.13;;;6.60;99.90;;;;;;5073950;28;20233;-61
2021/04/19 03:48:43;;;;;;;75.40;31.58;;;6.60;99.90;;;;;;5073838;28;20510;-61
2021/04/19 03:51:11;;;;;;;73.18;31.13;;;6.60;99.90;;;;;;5073842;28;20055;-61
2021/04/19 03:53:38;;;;;;;67.65;30.58;;;6.60;99.90;;;;;;5073413;28;20111;-61
2021/04/19 03:56:05;;;;;;;72.78;31.98;;;6.60;99.90;;;;;;5073867;28;20075;-61
2021/04/19 03:58:33;;;;;;;81.80;32.53;;;6.50;99.90;;;;;;5072775;28;20396;-61
2021/04/19 04:01:02;;;;;;;73.15;31.17;;;6.50;99.90;;;;;;5073627;28;20058;-62
2021/04/19 04:03:29;;;;;;;75.93;32.85;;;6.50;99.90;;;;;;5073195;28;20093;-62
2021/04/19 04:05:57;;;;;;;67.78;30.52;;;6.50;99.90;;;;;;5073393;28;20025;-62
2021/04/19 04:08:24;;;;;;;75.95;31.35;;;6.40;99.90;;;;;;5073599;28;20031;-61
2021/04/19 04:10:50;;;;;;;70.85;31.38;;;6.40;99.90;;;;;;5073550;28;20528;-62
2021/04/19 04:13:17;;;;;;;79.05;31.70;;;6.40;99.90;;;;;;5073333;28;20388;-62
2021/04/19 04:15:57;;;;;;;73.32;31.33;;;6.40;99.90;;;;;;5071804;28;20428;-62
2021/04/19 04:18:23;;;;;;;73.13;31.42;;;6.40;99.90;;;;;;5073273;28;20107;-61
2021/04/19 04:20:49;;;;;;;83.05;30.90;;;6.30;99.90;;;;;;5071827;28;20527;-61
2021/04/19 04:23:16;;;;;;;78.65;31.90;;;6.30;99.90;;;;;;5072918;28;20370;-61
2021/04/19 04:25:42;;;;;;;67.53;30.90;;;6.30;99.90;;;;;;5071471;28;20032;-62
2021/04/19 04:28:08;;;;;;;64.90;30.40;;;6.40;99.90;;;;;;5072600;28;20036;-62
2021/04/19 04:30:35;;;;;;;69.90;30.73;;;6.40;99.90;;;;;;5072819;28;20032;-62
2021/04/19 04:33:06;;;;;;;72.72;31.77;;;6.30;99.90;;;;;;5072502;28;20025;-62
2021/04/19 04:35:33;;;;;;;104.22;32.63;;;6.30;99.90;;;;;;5072420;28;20040;-62
2021/04/19 04:37:59;;;;;;;92.30;32.38;;;6.30;99.90;;;;;;5072895;28;20024;-62
2021/04/19 04:40:26;;;;;;;79.07;30.55;;;6.40;99.90;;;;;;5071294;28;20115;-62
2021/04/19 04:42:56;;;;;;;79.25;31.80;;;6.40;99.90;;;;;;5072697;28;20020;-62
2021/04/19 04:45:22;;;;;;;83.43;32.47;;;6.50;99.90;;;;;;5072503;28;20073;-62
2021/04/19 04:48:02;;;;;;;91.53;33.30;;;6.50;99.90;;;;;;5072919;28;20017;-62
2021/04/19 04:50:58;;;;;;;111.57;33.08;;;6.50;99.90;;;;;;5072511;28;20236;-62
2021/04/19 04:53:45;;;;;;;105.30;33.75;;;6.50;99.90;;;;;;5071023;28;20028;-62
2021/04/19 04:56:13;;;;;;;115.50;32.78;;;6.50;99.90;;;;;;5071865;28;20024;-62
2021/04/19 04:58:40;;;;;;;94.47;34.80;;;6.50;99.90;;;;;;5070480;28;20024;-62
2021/04/19 05:01:08;;;;;;;105.40;32.88;;;6.50;99.90;;;;;;5071989;28;20029;-62
2021/04/19 05:03:36;;;;;;;84.30;34.50;;;6.60;99.90;;;;;;5072136;28;20029;-62
2021/04/19 05:06:02;;;;;;;82.30;34.45;;;6.60;99.90;;;;;;5071222;28;20027;-62
2021/04/19 05:08:29;;;;;;;90.85;35.22;;;6.70;99.90;;;;;;5072149;28;20485;-62
2021/04/19 05:10:58;;;;;;;76.65;34.22;;;6.70;99.90;;;;;;5071260;28;20028;-62
2021/04/19 05:13:24;;;;;;;75.88;35.85;;;6.80;99.90;;;;;;5071747;28;20032;-62
2021/04/19 05:15:50;;;;;;;83.15;35.22;;;6.90;99.90;;;;;;5071675;28;20469;-62
2021/04/19 05:18:18;;;;;;;76.45;36.83;;;6.90;99.90;;;;;;5071998;28;20405;-62
2021/04/19 05:20:45;;;;;;;66.65;33.53;;;6.90;99.90;;;;;;5071388;28;20557;-62
2021/04/19 05:23:11;;;;;;;74.25;35.92;;;6.90;99.90;;;;;;5070137;28;20028;-62
2021/04/19 05:25:38;;;;;;;64.50;34.25;;;7.00;99.90;;;;;;5071649;28;20398;-62
2021/04/19 05:28:04;;;;;;;69.22;34.60;;;7.00;99.90;;;;;;5071573;28;20020;-61
2021/04/19 05:30:31;;;;;;;75.07;33.00;;;7.00;99.90;;;;;;5072255;28;20027;-61
2021/04/19 05:33:01;;;;;;;72.03;34.17;;;7.10;99.90;;;;;;5071814;28;20028;-61
2021/04/19 05:35:28;;;;;;;67.22;34.65;;;6.90;99.90;;;;;;5071371;28;20047;-61
2021/04/19 05:37:54;;;;;;;71.88;35.13;;;7.00;99.90;;;;;;5071497;28;20028;-61
2021/04/19 05:40:21;;;;;;;64.90;33.45;;;7.10;99.90;;;;;;5071972;28;20465;-61
2021/04/19 05:42:47;;;;;;;69.18;34.83;;;7.00;99.90;;;;;;5071610;28;20020;-61
2021/04/19 05:45:17;;;;;;;67.07;34.67;;;7.00;99.90;;;;;;5069375;28;20032;-61
2021/04/19 05:47:44;;;;;;;57.25;33.45;;;7.00;99.90;;;;;;5071177;28;20028;-61
2021/04/19 05:50:11;;;;;;;60.08;33.17;;;7.10;99.90;;;;;;5063553;28;20021;-61
2021/04/19 05:52:37;;;;;;;61.80;34.30;;;7.10;99.90;;;;;;5056693;28;20066;-61
2021/04/19 05:55:03;;;;;;;64.82;35.95;;;7.10;99.90;;;;;;5067065;28;20052;-61
2021/04/19 05:57:35;;;;;;;67.88;35.28;;;7.20;99.90;;;;;;5068665;28;20131;-61
2021/04/19 06:00:33;;;;;;;59.45;35.17;;;7.20;99.90;;;;;;5066214;28;20033;-61
2021/04/19 06:03:19;;;;;;;62.53;34.35;;;7.30;99.90;;;;;;5061360;28;20032;-61
2021/04/19 06:06:05;;;;;;;66.95;35.65;;;7.50;99.90;;;;;;5066208;28;20029;-61
2021/04/19 06:08:41;;;;;;;67.03;36.05;;;7.60;99.90;;;;;;5051165;28;20036;-61
2021/04/19 06:11:23;;;;;;;61.22;34.00;;;7.70;99.90;;;;;;5062481;28;20023;-61
2021/04/19 06:13:51;;;;;;;58.60;33.88;;;7.80;99.90;;;;;;5056490;28;20362;-61
2021/04/19 06:16:18;;;;;;;59.08;34.22;;;7.90;99.90;;;;;;5052718;28;20279;-61
2021/04/19 06:18:45;;;;;;;64.95;33.90;;;8.00;99.90;;;;;;5055530;28;20358;-61
2021/04/19 06:21:12;;;;;;;58.60;32.45;;;8.00;99.90;;;;;;5053129;28;20024;-61
2021/04/19 06:23:40;;;;;;;58.35;31.83;;;8.10;99.90;;;;;;5059229;28;20399;-61
2021/04/19 06:26:09;;;;;;;57.22;31.67;;;8.20;99.90;;;;;;5064956;28;20028;-61
2021/04/19 06:28:35;;;;;;;63.85;31.95;;;8.30;99.90;;;;;;5061630;28;20501;-61
2021/04/19 06:31:03;;;;;;;59.88;31.70;;;8.30;99.90;;;;;;5055294;28;20597;-61
2021/04/19 06:33:30;;;;;;;58.40;30.48;;;8.50;99.90;;;;;;5053799;28;20021;-61
2021/04/19 06:35:55;;;;;;;52.05;30.33;;;8.70;99.90;;;;;;5065420;28;20017;-61
2021/04/19 06:38:22;;;;;;;58.67;31.05;;;8.70;99.90;;;;;;5067482;28;20209;-61
2021/04/19 06:40:47;;;;;;;48.83;29.42;;;8.70;99.90;;;;;;5068790;28;20024;-61
2021/04/19 06:43:13;;;;;;;53.00;30.00;;;8.60;99.90;;;;;;5046278;28;20047;-61
2021/04/19 06:45:40;;;;;;;51.00;30.55;;;8.60;99.90;;;;;;5057456;28;20085;-61
2021/04/19 06:48:08;;;;;;;50.72;29.38;;;8.60;99.90;;;;;;5057351;28;20048;-62
2021/04/19 06:50:35;;;;;;;49.67;29.58;;;8.60;99.90;;;;;;5056867;28;20021;-61
2021/04/19 06:53:01;;;;;;;50.63;29.67;;;8.80;99.90;;;;;;5047303;28;21354;-61
2021/04/19 06:55:27;;;;;;;49.95;29.42;;;8.80;99.90;;;;;;5051747;28;20025;-61
2021/04/19 06:57:56;;;;;;;51.05;29.45;;;8.80;99.90;;;;;;5056702;28;20051;-61
2021/04/19 07:00:23;;;;;;;50.47;29.15;;;8.80;99.90;;;;;;5061400;28;20402;-61
2021/04/19 07:02:50;;;;;;;46.58;28.83;;;8.80;99.90;;;;;;5064398;28;20113;-61
2021/04/19 07:05:26;;;;;;;49.92;29.17;;;8.80;99.90;;;;;;5060366;28;20025;-61
2021/04/19 07:07:56;;;;;;;47.63;27.92;;;8.90;99.90;;;;;;5064470;28;20025;-61
2021/04/19 07:10:22;;;;;;;45.83;27.42;;;8.90;99.90;;;;;;5066249;28;20029;-61
2021/04/19 07:12:48;;;;;;;45.35;28.48;;;9.10;99.90;;;;;;5060830;28;20025;-61
2021/04/19 07:15:18;;;;;;;49.70;28.00;;;9.10;99.90;;;;;;5056636;28;20056;-61
2021/04/19 07:17:45;;;;;;;46.95;28.42;;;9.30;99.90;;;;;;5035571;28;20537;-61
2021/04/19 07:20:11;;;;;;;45.20;26.67;;;9.40;99.90;;;;;;5039538;28;20017;-61
2021/04/19 07:22:38;;;;;;;44.58;26.70;;;9.70;99.90;;;;;;5042031;28;20390;-61
2021/04/19 07:25:05;;;;;;;56.72;27.67;;;9.70;99.90;;;;;;5039579;28;20485;-62
2021/04/19 07:27:31;;;;;;;48.97;27.25;;;9.70;99.90;;;;;;5033199;28;20485;-63
2021/04/19 07:29:56;;;;;;;51.15;26.48;;;9.90;99.90;;;;;;5036566;28;20022;-61
2021/04/19 07:32:33;;;;;;;43.38;26.45;;;10.10;99.90;;;;;;5038185;28;20513;-62
2021/04/19 07:34:59;;;;;;;39.22;25.38;;;10.10;99.90;;;;;;5040488;28;20116;-62
2021/04/19 07:37:28;;;;;;;37.10;25.17;;;10.20;99.90;;;;;;5037752;28;20627;-61
2021/04/19 07:39:56;;;;;;;41.08;25.15;;;10.20;99.90;;;;;;5038505;28;20049;-62
2021/04/19 07:42:22;;;;;;;38.30;23.85;;;10.50;99.90;;;;;;5042874;28;20027;-64
2021/04/19 07:44:52;;;;;;;35.22;22.90;;;11.00;99.90;;;;;;5046510;28;20470;-64
2021/04/19 07:47:20;;;;;;;31.52;21.45;;;11.70;99.90;;;;;;5032404;28;20040;-64
2021/04/19 07:50:05;;;;;;;33.17;21.08;;;12.60;99.90;;;;;;5034942;28;20033;-64
2021/04/19 07:52:35;;;;;;;33.47;20.90;;;13.50;99.90;;;;;;5034989;28;20029;-63
2021/04/19 07:55:14;;;;;;;30.23;20.38;;;14.80;99.90;;;;;;5033395;28;20108;-63
2021/04/19 07:57:41;;;;;;;28.88;19.73;;;16.30;99.90;;;;;;5022401;28;20139;-63
2021/04/19 08:00:09;;;;;;;30.73;20.17;;;17.40;96.40;;;;;;5037191;28;20025;-63
2021/04/19 08:02:35;;;;;;;25.65;18.77;;;17.80;94.30;;;;;;5036561;28;20044;-63
2021/04/19 08:05:04;;;;;;;29.85;18.58;;;17.80;91.40;;;;;;5042496;28;20048;-63
2021/04/19 08:07:31;;;;;;;29.50;19.52;;;17.70;91.00;;;;;;5025979;28;20040;-62
2021/04/19 08:10:02;;;;;;;31.20;19.17;;;17.10;93.50;;;;;;5038958;28;20025;-63
2021/04/19 08:12:34;;;;;;;29.02;19.08;;;16.80;93.90;;;;;;5038329;28;20022;-63
2021/04/19 08:15:02;;;;;;;33.20;19.30;;;17.10;94.10;;;;;;5037365;28;20112;-62
2021/04/19 08:17:30;;;;;;;32.30;20.25;;;17.30;94.60;;;;;;5023250;28;20061;-63
2021/04/19 08:19:56;;;;;;;31.60;18.55;;;18.20;92.30;;;;;;5038349;28;20025;-63
2021/04/19 08:22:26;;;;;;;33.55;18.02;;;19.40;80.00;;;;;;5038216;28;20037;-64
2021/04/19 08:25:12;;;;;;;28.90;18.05;;;19.90;70.50;;;;;;5044007;28;20025;-64
2021/04/19 08:27:41;;;;;;;27.40;16.90;;;19.90;68.80;;;;;;5037394;28;20088;-64
2021/04/19 08:30:09;;;;;;;28.20;17.35;;;19.00;70.60;;;;;;5034751;28;20103;-64
2021/04/19 08:32:35;;;;;;;28.65;17.73;;;18.60;77.20;;;;;;5036545;28;20040;-64
2021/04/19 08:35:04;;;;;;;23.95;17.00;;;18.60;82.40;;;;;;5032915;28;20060;-64
2021/04/19 08:37:30;;;;;;;29.73;19.17;;;18.80;77.30;;;;;;5038399;28;20033;-64
2021/04/19 08:40:03;;;;;;;30.25;18.77;;;18.50;80.50;;;;;;5029053;28;20033;-64
2021/04/19 08:42:30;;;;;;;84.07;20.27;;;18.70;78.50;;;;;;5028130;28;20025;-64
2021/04/19 08:44:59;;;;;;;26.88;17.33;;;19.20;76.40;;;;;;5030582;28;20036;-64
2021/04/19 08:47:28;;;;;;;48.60;17.92;;;19.10;74.80;;;;;;5036556;28;20029;-64
2021/04/19 08:49:58;;;;;;;27.42;16.58;;;18.90;72.70;;;;;;5030903;28;20122;-64
2021/04/19 08:52:27;;;;;;;27.27;16.48;;;18.60;74.30;;;;;;5025954;28;20010;-64
2021/04/19 08:54:53;;;;;;;27.60;16.25;;;18.30;79.10;;;;;;5031711;28;20040;-64
2021/04/19 08:57:19;;;;;;;26.38;16.13;;;18.30;82.40;;;;;;5037277;28;20055;-63
2021/04/19 08:59:46;;;;;;;30.65;16.58;;;18.60;75.40;;;;;;5032916;28;20029;-64
2021/04/19 09:02:15;;;;;;;26.50;15.95;;;18.60;77.50;;;;;;5021196;28;20033;-64
2021/04/19 09:05:01;;;;;;;26.40;15.45;;;18.60;77.50;;;;;;5032691;28;20020;-63
2021/04/19 09:07:30;;;;;;;20.35;14.68;;;18.80;74.70;;;;;;5041628;28;20110;-64
2021/04/19 09:09:56;;;;;;;24.33;15.45;;;18.60;73.40;;;;;;5029861;28;20078;-64
2021/04/19 09:12:24;;;;;;;26.05;16.25;;;18.90;72.20;;;;;;5029994;28;20029;-63
2021/04/19 09:14:53;;;;;;;23.33;16.25;;;18.80;72.40;;;;;;5036433;28;20025;-63
2021/04/19 09:17:25;;;;;;;31.50;16.17;;;18.60;77.90;;;;;;5032445;28;20148;-64
2021/04/19 09:19:58;;;;;;;26.77;15.50;;;19.50;68.40;;;;;;5027403;28;20513;-64
2021/04/19 09:22:25;;;;;;;25.52;15.57;;;19.20;70.60;;;;;;5032310;28;20067;-63
2021/04/19 09:25:13;;;;;;;28.40;15.98;;;19.50;67.20;;;;;;5039548;28;20359;-64
2021/04/19 09:27:53;;;;;;;30.77;16.58;;;20.10;64.60;;;;;;5033218;28;20493;-64
2021/04/19 09:30:32;;;;;;;35.00;16.17;;;19.40;67.00;;;;;;5032599;28;20071;-64
2021/04/19 09:33:04;;;;;;;26.35;14.77;;;20.00;66.90;;;;;;5039865;28;20026;-64
2021/04/19 09:35:39;;;;;;;30.23;15.75;;;20.30;65.70;;;;;;5036340;28;20025;-64
2021/04/19 09:38:05;;;;;;;24.33;15.52;;;20.10;65.80;;;;;;5032548;28;20476;-64
2021/04/19 09:41:03;;;;;;;22.02;15.82;;;20.70;63.30;;;;;;5032229;28;20029;-64
2021/04/19 09:43:33;;;;;;;24.75;17.27;;;20.50;63.70;;;;;;5031383;28;20134;-64
2021/04/19 09:46:02;;;;;;;23.45;16.35;;;20.10;68.50;;;;;;5036812;28;20075;-64
2021/04/19 09:48:28;;;;;;;34.58;16.70;;;20.60;65.90;;;;;;5039975;28;20021;-64
2021/04/19 09:51:02;;;;;;;31.65;16.75;;;20.60;63.70;;;;;;5027355;28;20024;-64
2021/04/19 09:53:30;;;;;;;31.95;16.23;;;20.10;67.60;;;;;;5046388;28;20020;-64
2021/04/19 09:55:59;;;;;;;29.60;16.38;;;20.20;68.50;;;;;;5041212;28;20021;-64
2021/04/19 09:58:26;;;;;;;25.67;15.05;;;20.70;63.10;;;;;;5032308;28;20097;-64
2021/04/19 10:00:55;;;;;;;26.02;15.93;;;19.90;62.60;;;;;;5025891;28;20592;-64
2021/04/19 10:03:21;;;;;;;50.17;17.35;;;19.70;70.10;;;;;;5031417;28;20021;-64
2021/04/19 10:05:49;;;;;;;31.00;16.17;;;19.80;67.00;;;;;;5038367;28;20116;-64
2021/04/19 10:08:16;;;;;;;24.92;15.80;;;19.30;70.60;;;;;;5034721;28;20111;-64
2021/04/19 10:10:43;;;;;;;30.58;15.32;;;19.60;68.40;;;;;;5031207;28;20120;-64
2021/04/19 10:13:09;;;;;;;24.38;14.48;;;20.20;66.00;;;;;;5040519;28;20027;-64
2021/04/19 10:15:34;;;;;;;23.48;13.90;;;20.30;59.60;;;;;;5037923;28;20041;-64
2021/04/19 10:18:12;;;;;;;23.25;13.77;;;20.70;60.10;;;;;;5028752;28;20025;-64
2021/04/19 10:20:38;;;;;;;25.88;14.55;;;20.80;59.70;;;;;;5026855;28;20025;-66
2021/04/19 10:23:05;;;;;;;27.67;12.93;;;20.60;59.80;;;;;;5034490;28;20105;-64
2021/04/19 10:25:32;;;;;;;20.63;12.13;;;20.70;61.00;;;;;;5035449;28;20087;-63
2021/04/19 10:27:58;;;;;;;24.95;11.77;;;22.60;55.40;;;;;;5039525;28;20021;-67
2021/04/19 10:30:24;;;;;;;20.58;11.23;;;22.00;52.70;;;;;;5031620;28;20088;-64
2021/04/19 10:32:50;;;;;;;23.05;12.45;;;21.60;54.00;;;;;;5031297;28;20386;-64
2021/04/19 10:35:32;;;;;;;25.77;12.27;;;21.50;54.70;;;;;;5038041;28;20032;-63
2021/04/19 10:37:58;;;;;;;19.17;11.93;;;21.20;54.80;;;;;;5034556;28;20109;-65
2021/04/19 10:40:25;;;;;;;19.15;10.80;;;20.30;57.60;;;;;;5030243;28;20393;-65
2021/04/19 10:42:50;;;;;;;24.27;10.30;;;21.00;54.50;;;;;;5034203;28;20033;-65
2021/04/19 10:45:17;;;;;;;22.58;11.05;;;21.30;52.30;;;;;;5040136;28;20553;-65
2021/04/19 10:47:43;;;;;;;20.10;9.95;;;21.20;53.80;;;;;;5035657;28;20093;-65
2021/04/19 10:50:09;;;;;;;20.00;10.00;;;21.90;51.80;;;;;;5028571;28;20577;-66
2021/04/19 10:52:35;;;;;;;20.10;9.20;;;21.70;51.40;;;;;;5032928;28;20028;-65
2021/04/19 10:55:08;;;;;;;18.20;7.90;;;22.10;50.70;;;;;;5038514;28;20051;-66
2021/04/19 10:57:35;;;;;;;17.10;8.68;;;22.30;47.10;;;;;;5033405;28;20045;-65
2021/04/19 11:00:05;;;;;;;17.90;8.38;;;22.00;46.70;;;;;;5031737;28;20029;-63
2021/04/19 11:02:33;;;;;;;15.85;8.70;;;21.80;46.70;;;;;;5031456;28;20029;-65
2021/04/19 11:04:59;;;;;;;14.50;7.30;;;22.10;47.20;;;;;;5031750;28;20029;-65
2021/04/19 11:07:26;;;;;;;17.75;8.32;;;22.50;46.30;;;;;;5037634;28;20044;-65
2021/04/19 11:10:22;;;;;;;16.90;8.00;;;23.10;44.00;;;;;;5037593;28;20033;-65
2021/04/19 11:13:23;;;;;;;13.90;7.72;;;22.70;44.30;;;;;;5040736;28;20393;-65
2021/04/19 11:15:58;;;;;;;16.20;8.65;;;22.50;44.90;;;;;;5039771;28;20071;-65
2021/04/19 11:18:29;;;;;;;12.02;8.40;;;21.50;45.90;;;;;;5044940;28;20033;-64
2021/04/19 11:20:56;;;;;;;11.45;8.90;;;21.10;48.80;;;;;;5040857;28;20029;-64
2021/04/19 11:23:26;;;;;;;14.32;8.90;;;21.00;48.00;;;;;;5045117;28;20120;-64
2021/04/19 11:25:54;;;;;;;114.38;18.73;;;21.20;48.30;;;;;;5038093;28;20033;-65
2021/04/19 11:28:29;;;;;;;29.10;9.98;;;21.30;48.50;;;;;;5040791;28;20490;-65
2021/04/19 11:30:55;;;;;;;27.15;10.23;;;21.40;47.60;;;;;;5043328;28;20025;-65
2021/04/19 11:33:28;;;;;;;15.93;9.02;;;20.60;48.40;;;;;;5036655;28;20028;-65
2021/04/19 11:36:02;;;;;;;33.85;12.07;;;19.90;50.60;;;;;;5032996;28;20025;-66
2021/04/19 11:38:29;;;;;;;18.00;10.48;;;19.80;52.00;;;;;;5034079;28;20033;-65
2021/04/19 11:41:01;;;;;;;23.48;10.85;;;19.90;51.50;;;;;;5045294;28;20040;-66
2021/04/19 11:43:29;;;;;;;21.95;10.98;;;19.50;52.00;;;;;;5044216;28;21631;-63
2021/04/19 11:45:59;;;;;;;59.75;15.50;;;18.80;53.60;;;;;;5044105;28;20100;-63
2021/04/19 11:48:26;;;;;;;25.52;13.02;;;18.30;55.40;;;;;;5032846;28;20074;-63
2021/04/19 11:50:52;;;;;;;42.78;13.65;;;18.30;56.20;;;;;;5040762;28;20029;-63
2021/04/19 11:53:29;;;;;;;28.27;11.25;;;18.70;56.40;;;;;;5042653;28;20110;-63
2021/04/19 11:55:56;;;;;;;21.58;11.68;;;19.70;53.00;;;;;;5035594;28;20064;-63
2021/04/19 11:58:22;;;;;;;24.80;12.70;;;20.90;50.80;;;;;;5032377;28;20501;-63
2021/04/19 12:00:49;;;;;;;34.40;13.05;;;21.20;50.40;;;;;;5038518;28;20064;-64
2021/04/19 12:03:15;;;;;;;38.10;13.98;;;21.40;49.80;;;;;;5034263;28;20033;-64
2021/04/19 12:05:42;;;;;;;26.40;11.55;;;21.90;49.10;;;;;;5034066;28;20382;-64
2021/04/19 12:08:09;;;;;;;23.58;11.18;;;21.10;49.70;;;;;;5032599;28;20040;-64
2021/04/19 12:10:35;;;;;;;24.75;11.18;;;20.80;49.00;;;;;;5037570;28;20116;-63
2021/04/19 12:13:01;;;;;;;27.08;11.98;;;20.70;50.00;;;;;;5038169;28;20040;-64
2021/04/19 12:15:27;;;;;;;15.25;10.85;;;20.10;50.10;;;;;;5032077;28;20030;-63
2021/04/19 12:17:52;;;;;;;17.95;11.02;;;19.80;51.50;;;;;;5031440;28;20029;-63
2021/04/19 12:20:18;;;;;;;21.75;11.35;;;19.80;50.90;;;;;;5038441;28;20036;-63
2021/04/19 12:22:43;;;;;;;15.88;10.70;;;19.60;52.20;;;;;;5039133;28;20033;-63
2021/04/19 12:25:09;;;;;;;15.63;10.98;;;19.20;51.90;;;;;;5037175;28;20033;-63
2021/04/19 12:27:35;;;;;;;12.60;10.07;;;18.80;53.00;;;;;;5031403;28;20140;-64
2021/04/19 12:30:02;;;;;;;15.57;10.25;;;19.00;53.30;;;;;;5040201;28;20028;-63
2021/04/19 12:32:27;;;;;;;15.80;10.13;;;19.40;52.80;;;;;;5038255;28;20389;-64
2021/04/19 12:34:53;;;;;;;29.65;10.15;;;20.00;51.60;;;;;;5040201;28;20116;-64
2021/04/19 12:37:18;;;;;;;15.20;10.02;;;20.50;50.10;;;;;;5022791;28;20520;-64
2021/04/19 12:39:44;;;;;;;28.65;10.77;;;21.20;49.10;;;;;;5034246;28;20029;-65
2021/04/19 12:42:10;;;;;;;15.50;10.45;;;21.50;47.90;;;;;;5045707;28;20419;-63
2021/04/19 12:44:35;;;;;;;15.07;10.68;;;20.30;49.90;;;;;;5044697;28;20025;-64